createdAt,value
2023-10-29T00:00:31.483Z,63.28
2023-10-29T00:02:59.947Z,63.16
2023-10-29T00:05:28.083Z,63.20
2023-10-29T00:07:56.075Z,63.21
2023-10-29T00:10:24.134Z,63.31
2023-10-29T00:12:52.054Z,63.24
2023-10-29T00:15:21.366Z,63.31
2023-10-29T00:17:50.301Z,63.50
2023-10-29T00:20:18.395Z,63.51
2023-10-29T00:22:46.385Z,63.61
2023-10-29T00:25:14.277Z,63.36
2023-10-29T00:27:42.243Z,63.34
2023-10-29T00:30:10.849Z,63.28
2023-10-29T00:32:40.216Z,63.37
2023-10-29T00:35:08.781Z,63.20
2023-10-29T00:37:36.773Z,63.16
2023-10-29T00:40:05.348Z,63.16
2023-10-29T00:42:33.320Z,63.21
2023-10-29T00:45:01.533Z,63.17
2023-10-29T00:47:29.767Z,63.19
2023-10-29T00:49:59.157Z,63.27
2023-10-29T00:52:27.883Z,63.09
2023-10-29T00:54:55.850Z,63.30
2023-10-29T00:57:23.821Z,63.75
2023-10-29T00:59:51.772Z,64.21
2023-10-29T01:02:21.291Z,64.23
2023-10-29T01:04:49.538Z,64.27
2023-10-29T01:07:19.659Z,64.20
2023-10-29T01:09:47.603Z,64.51
2023-10-29T01:12:17.479Z,64.24
2023-10-29T01:14:46.366Z,64.26
2023-10-29T01:17:14.488Z,64.08
2023-10-29T01:19:42.433Z,64.12
2023-10-29T01:22:11.137Z,64.08
2023-10-29T01:24:40.655Z,63.88
2023-10-29T01:27:09.170Z,64.02
2023-10-29T01:29:37.251Z,64.01
2023-10-29T01:32:05.666Z,63.90
2023-10-29T01:34:33.724Z,64.03
2023-10-29T01:37:01.626Z,64.00
2023-10-29T01:39:29.599Z,64.00
2023-10-29T01:41:59.355Z,63.79
2023-10-29T01:44:27.499Z,63.81
2023-10-29T01:46:55.509Z,64.02
2023-10-29T01:49:23.422Z,63.80
2023-10-29T01:51:51.806Z,63.72
2023-10-29T01:54:19.765Z,63.49
2023-10-29T01:56:47.709Z,63.46
2023-10-29T01:59:17.328Z,63.50
2023-10-29T02:01:45.309Z,63.65
2023-10-29T02:04:13.589Z,63.45
2023-10-29T02:06:41.682Z,63.53
2023-10-29T02:09:10.329Z,63.46
2023-10-29T02:11:39.207Z,63.36
2023-10-29T02:14:07.510Z,63.42
2023-10-29T02:16:36.901Z,63.17
2023-10-29T02:19:05.407Z,63.06
2023-10-29T02:21:33.365Z,63.35
2023-10-29T02:24:02.858Z,63.37
2023-10-29T02:26:30.896Z,63.15
2023-10-29T02:28:58.819Z,62.71
2023-10-29T02:31:26.810Z,62.99
2023-10-29T02:33:54.790Z,62.96
2023-10-29T02:36:23.133Z,63.24
2023-10-29T02:38:51.083Z,63.24
2023-10-29T02:41:20.519Z,63.25
2023-10-29T02:43:48.498Z,63.10
2023-10-29T02:46:16.423Z,62.89
2023-10-29T02:48:44.447Z,62.98
2023-10-29T02:51:13.215Z,62.98
2023-10-29T02:53:41.541Z,62.87
2023-10-29T02:56:09.558Z,62.63
2023-10-29T02:58:38.913Z,62.80
2023-10-29T03:01:08.186Z,62.48
2023-10-29T03:03:36.751Z,62.76
2023-10-29T03:06:06.267Z,63.03
2023-10-29T03:08:34.504Z,62.79
2023-10-29T03:11:02.625Z,63.03
2023-10-29T03:13:30.565Z,63.03
2023-10-29T03:15:59.892Z,62.95
2023-10-29T03:18:30.514Z,63.34
2023-10-29T03:20:58.674Z,62.93
2023-10-29T03:23:26.625Z,62.75
2023-10-29T03:25:55.434Z,62.79
2023-10-29T03:28:23.349Z,62.86
2023-10-29T03:30:51.287Z,62.91
2023-10-29T03:33:20.722Z,62.83
2023-10-29T03:35:48.909Z,62.93
2023-10-29T03:38:16.911Z,62.86
2023-10-29T03:40:45.003Z,62.82
2023-10-29T03:43:12.970Z,62.95
2023-10-29T03:45:40.940Z,62.87
2023-10-29T03:48:08.993Z,63.04
2023-10-29T03:50:38.359Z,63.11
2023-10-29T03:53:06.337Z,63.17
2023-10-29T03:55:34.285Z,62.69
2023-10-29T03:58:02.196Z,62.75
2023-10-29T04:00:30.094Z,62.70
2023-10-29T04:02:59.720Z,62.91
2023-10-29T04:05:27.790Z,62.72
2023-10-29T04:07:57.074Z,62.74
2023-10-29T04:10:25.052Z,62.75
2023-10-29T04:12:52.965Z,62.61
2023-10-29T04:15:20.936Z,62.82
2023-10-29T04:17:49.635Z,62.73
2023-10-29T04:20:17.719Z,62.37
2023-10-29T04:22:45.609Z,62.66
2023-10-29T04:25:14.904Z,62.54
2023-10-29T04:27:42.785Z,62.50
2023-10-29T04:30:11.588Z,62.52
2023-10-29T04:32:39.595Z,62.72
2023-10-29T04:35:08.244Z,62.44
2023-10-29T04:37:36.184Z,62.29
2023-10-29T04:40:05.207Z,62.48
2023-10-29T04:42:34.466Z,62.33
2023-10-29T04:45:02.489Z,62.40
2023-10-29T04:47:30.511Z,62.50
2023-10-29T04:49:58.457Z,62.33
2023-10-29T04:52:26.552Z,62.53
2023-10-29T04:54:54.486Z,62.34
2023-10-29T04:57:22.632Z,62.47
2023-10-29T04:59:53.494Z,62.35
2023-10-29T05:02:23.435Z,62.57
2023-10-29T05:04:52.137Z,62.58
2023-10-29T05:07:20.836Z,62.39
2023-10-29T05:09:48.879Z,62.75
2023-10-29T05:12:17.159Z,62.84
2023-10-29T05:14:45.154Z,62.86
2023-10-29T05:17:14.456Z,62.85
2023-10-29T05:19:42.377Z,62.64
2023-10-29T05:22:10.302Z,62.66
2023-10-29T05:24:38.219Z,62.74
2023-10-29T05:27:06.241Z,62.62
2023-10-29T05:29:34.904Z,62.54
2023-10-29T05:32:02.906Z,62.83
2023-10-29T05:34:32.268Z,62.47
2023-10-29T05:37:00.395Z,62.63
2023-10-29T05:39:28.320Z,62.33
2023-10-29T05:41:56.280Z,62.32
2023-10-29T05:44:24.172Z,61.99
2023-10-29T05:46:52.081Z,62.05
2023-10-29T05:49:19.981Z,62.39
2023-10-29T05:51:50.932Z,62.50
2023-10-29T05:54:19.944Z,62.28
2023-10-29T05:56:48.048Z,62.39
2023-10-29T05:59:15.983Z,62.49
2023-10-29T06:01:43.941Z,62.71
2023-10-29T06:04:11.980Z,62.44
2023-10-29T06:06:39.967Z,62.18
2023-10-29T06:09:20.954Z,62.50
2023-10-29T06:11:51.627Z,62.43
2023-10-29T06:14:19.614Z,62.54
2023-10-29T06:16:47.874Z,62.52
2023-10-29T06:19:15.796Z,62.83
2023-10-29T06:21:43.752Z,62.55
2023-10-29T06:24:13.769Z,62.66
2023-10-29T06:26:41.797Z,62.62
2023-10-29T06:29:09.996Z,62.73
2023-10-29T06:31:38.011Z,62.75
2023-10-29T06:34:05.962Z,62.29
2023-10-29T06:36:34.815Z,62.45
2023-10-29T06:39:02.804Z,62.36
2023-10-29T06:41:32.267Z,62.14
2023-10-29T06:44:00.205Z,62.29
2023-10-29T06:46:28.256Z,62.32
2023-10-29T06:48:56.198Z,62.13
2023-10-29T06:51:24.103Z,62.15
2023-10-29T06:53:52.076Z,62.25
2023-10-29T06:56:20.067Z,62.14
2023-10-29T06:58:49.304Z,62.25
2023-10-29T07:01:17.269Z,62.42
2023-10-29T07:03:45.388Z,62.27
2023-10-29T07:06:15.307Z,62.01
2023-10-29T07:08:43.257Z,62.14
2023-10-29T07:11:11.197Z,62.32
2023-10-29T07:13:39.493Z,62.08
2023-10-29T07:16:10.161Z,62.21
2023-10-29T07:18:38.421Z,62.26
2023-10-29T07:21:07.189Z,62.11
2023-10-29T07:23:35.138Z,62.14
2023-10-29T07:26:03.053Z,62.44
2023-10-29T07:28:31.082Z,62.51
2023-10-29T07:30:58.991Z,62.36
2023-10-29T07:33:28.345Z,62.39
2023-10-29T07:35:56.419Z,62.28
2023-10-29T07:38:24.457Z,62.18
2023-10-29T07:40:52.429Z,62.32
2023-10-29T07:43:20.321Z,62.36
2023-10-29T07:45:49.131Z,62.50
2023-10-29T07:48:18.557Z,62.46
2023-10-29T07:50:52.478Z,62.21
2023-10-29T07:53:20.875Z,62.34
2023-10-29T07:55:48.771Z,62.41
2023-10-29T07:58:16.714Z,62.66
2023-10-29T08:00:44.850Z,62.59
2023-10-29T08:03:12.951Z,62.71
2023-10-29T08:05:41.388Z,62.39
2023-10-29T08:08:10.686Z,62.59
2023-10-29T08:10:38.938Z,62.58
2023-10-29T08:13:10.681Z,62.56
2023-10-29T08:15:40.001Z,62.50
2023-10-29T08:18:09.154Z,62.83
2023-10-29T08:20:37.231Z,62.56
2023-10-29T08:23:05.235Z,62.42
2023-10-29T08:25:36.873Z,62.56
2023-10-29T08:28:05.116Z,62.57
2023-10-29T08:30:33.332Z,62.43
2023-10-29T08:33:01.387Z,62.42
2023-10-29T08:35:29.435Z,62.42
2023-10-29T08:37:57.830Z,62.35
2023-10-29T08:40:25.758Z,62.23
2023-10-29T08:42:55.037Z,62.38
2023-10-29T08:45:38.464Z,62.39
2023-10-29T08:48:10.223Z,62.10
2023-10-29T08:50:38.208Z,62.24
2023-10-29T08:53:06.396Z,62.31
2023-10-29T08:55:35.986Z,62.45
2023-10-29T08:58:05.371Z,62.40
2023-10-29T09:00:45.244Z,62.67
2023-10-29T09:03:14.921Z,62.68
2023-10-29T09:05:43.169Z,62.67
2023-10-29T09:08:13.415Z,62.72
2023-10-29T09:10:44.392Z,62.78
2023-10-29T09:13:14.540Z,62.72
2023-10-29T09:15:44.115Z,62.67
2023-10-29T09:18:12.253Z,62.47
2023-10-29T09:20:40.818Z,62.42
2023-10-29T09:23:08.865Z,62.44
2023-10-29T09:25:36.853Z,62.40
2023-10-29T09:28:06.782Z,62.24
2023-10-29T09:30:36.195Z,62.20
2023-10-29T09:33:04.342Z,62.08
2023-10-29T09:35:33.293Z,61.96
2023-10-29T09:38:01.239Z,61.73
2023-10-29T09:40:29.190Z,61.48
2023-10-29T09:42:57.273Z,61.54
2023-10-29T09:45:26.319Z,61.21
2023-10-29T09:47:56.072Z,61.04
2023-10-29T09:50:24.809Z,60.70
2023-10-29T09:52:53.171Z,60.68
2023-10-29T09:55:21.490Z,60.29
2023-10-29T09:57:56.571Z,60.61
2023-10-29T10:04:51.570Z,59.62
2023-10-29T10:07:49.049Z,59.15
2023-10-29T10:10:49.367Z,59.04
2023-10-29T10:13:21.262Z,58.56
2023-10-29T10:15:54.692Z,58.32
2023-10-29T10:18:23.819Z,57.87
2023-10-29T10:26:11.521Z,56.78
2023-10-29T10:30:36.119Z,56.51
2023-10-29T10:33:18.063Z,56.35
2023-10-29T10:35:55.845Z,56.14
2023-10-29T10:49:31.062Z,55.13
2023-10-29T10:52:15.303Z,54.94
2023-10-29T10:56:22.613Z,54.45
2023-10-29T11:04:28.502Z,53.68
2023-10-29T11:07:15.449Z,53.87
2023-10-29T11:27:04.585Z,52.88
2023-10-29T11:29:56.680Z,52.43
2023-10-29T11:50:21.310Z,51.24
2023-10-29T11:58:56.826Z,51.82
2023-10-29T12:01:29.617Z,50.98
2023-10-29T12:03:59.506Z,50.69
2023-10-29T12:06:41.667Z,50.45
2023-10-29T12:09:20.498Z,50.47
2023-10-29T12:11:50.666Z,50.48
2023-10-29T12:14:42.992Z,50.67
2023-10-29T12:17:13.152Z,50.53
2023-10-29T12:19:51.469Z,50.71
2023-10-29T12:22:28.333Z,50.66
2023-10-29T12:25:14.060Z,50.78
2023-10-29T12:27:46.847Z,51.18
2023-10-29T12:30:42.502Z,51.06
2023-10-29T12:33:24.244Z,50.96
2023-10-29T12:35:55.024Z,51.15
2023-10-29T12:38:32.464Z,50.76
2023-10-29T12:41:06.548Z,50.78
2023-10-29T12:43:39.975Z,50.96
2023-10-29T12:46:18.422Z,50.59
2023-10-29T12:49:06.300Z,50.38
2023-10-29T12:51:41.776Z,50.35
2023-10-29T12:54:19.792Z,50.50
2023-10-29T12:57:01.669Z,50.77
2023-10-29T12:59:36.888Z,50.96
2023-10-29T13:02:25.225Z,50.60
2023-10-29T13:04:55.602Z,50.45
2023-10-29T13:07:29.995Z,50.60
2023-10-29T13:10:09.154Z,50.52
2023-10-29T13:12:39.731Z,50.12
2023-10-29T13:15:17.993Z,49.94
2023-10-29T13:18:02.204Z,50.24
2023-10-29T13:20:32.488Z,50.48
2023-10-29T13:23:03.740Z,50.59
2023-10-29T13:25:33.503Z,50.30
2023-10-29T13:28:05.407Z,49.99
2023-10-29T13:30:38.872Z,50.09
2023-10-29T13:33:11.626Z,49.69
2023-10-29T13:35:57.637Z,49.42
2023-10-29T13:38:31.336Z,47.87
2023-10-29T13:41:02.638Z,47.94
2023-10-29T13:43:33.010Z,46.76
2023-10-29T13:46:15.223Z,46.63
2023-10-29T13:48:57.724Z,46.47
2023-10-29T13:51:33.433Z,46.15
2023-10-29T13:54:05.351Z,46.10
2023-10-29T13:56:37.631Z,46.13
2023-10-29T13:59:07.852Z,46.47
2023-10-29T14:01:44.719Z,46.55
2023-10-29T14:04:18.311Z,46.42
2023-10-29T14:06:53.391Z,45.94
2023-10-29T14:09:37.185Z,45.95
2023-10-29T14:12:15.253Z,46.40
2023-10-29T14:14:52.280Z,46.32
2023-10-29T14:17:37.138Z,46.73
2023-10-29T14:20:12.580Z,47.09
2023-10-29T14:22:42.835Z,47.07
2023-10-29T14:26:18.924Z,46.92
2023-10-29T14:28:47.025Z,47.30
2023-10-29T14:31:18.720Z,47.49
2023-10-29T14:33:52.496Z,47.61
2023-10-29T14:36:24.421Z,47.77
2023-10-29T14:38:53.806Z,47.84
2023-10-29T14:41:24.272Z,47.90
2023-10-29T14:43:59.547Z,48.21
2023-10-29T14:46:30.863Z,47.70
2023-10-29T14:49:05.473Z,47.99
2023-10-29T14:51:41.439Z,48.03
2023-10-29T14:54:12.537Z,48.29
2023-10-29T14:56:53.019Z,48.64
2023-10-29T14:59:32.217Z,48.66
2023-10-29T15:02:07.913Z,48.84
2023-10-29T15:04:39.964Z,49.04
2023-10-29T15:07:15.863Z,49.21
2023-10-29T15:09:48.479Z,49.39
2023-10-29T15:12:21.280Z,49.36
2023-10-29T15:14:54.286Z,49.50
2023-10-29T15:17:25.626Z,49.72
2023-10-29T15:20:08.061Z,49.69
2023-10-29T15:22:44.322Z,49.77
2023-10-29T15:25:19.213Z,49.93
2023-10-29T15:27:48.218Z,49.96
2023-10-29T15:30:20.576Z,49.90
2023-10-29T15:32:55.155Z,49.68
2023-10-29T15:35:26.017Z,49.78
2023-10-29T15:38:01.863Z,49.72
2023-10-29T15:40:35.217Z,49.69
2023-10-29T15:43:05.795Z,49.76
2023-10-29T15:45:38.235Z,49.42
2023-10-29T15:48:10.334Z,49.59
2023-10-29T15:50:40.683Z,49.44
2023-10-29T15:53:10.099Z,49.07
2023-10-29T15:55:38.032Z,49.11
2023-10-29T16:02:51.830Z,49.76
2023-10-29T16:05:20.724Z,49.63
2023-10-29T16:07:48.793Z,49.41
2023-10-29T16:10:18.122Z,49.50
2023-10-29T16:12:47.224Z,49.52
2023-10-29T16:15:15.252Z,49.60
2023-10-29T16:17:43.266Z,49.53
2023-10-29T16:20:12.126Z,49.85
2023-10-29T16:22:40.133Z,49.77
2023-10-29T16:25:09.411Z,49.87
2023-10-29T16:27:38.760Z,50.27
2023-10-29T16:30:08.773Z,50.25
2023-10-29T16:32:36.870Z,50.68
2023-10-29T16:35:05.256Z,50.43
2023-10-29T16:37:33.245Z,50.87
2023-10-29T16:40:01.161Z,50.96
2023-10-29T16:42:29.146Z,51.04
2023-10-29T16:44:58.476Z,51.28
2023-10-29T16:47:26.496Z,51.18
2023-10-29T16:49:54.461Z,51.36
2023-10-29T16:52:22.433Z,51.39
2023-10-29T16:54:50.927Z,51.64
2023-10-29T16:57:19.462Z,51.71
2023-10-29T16:59:47.638Z,51.68
2023-10-29T17:02:17.155Z,51.83
2023-10-29T17:04:45.171Z,51.98
2023-10-29T17:07:13.414Z,52.06
2023-10-29T17:09:41.650Z,52.43
2023-10-29T17:12:10.233Z,52.56
2023-10-29T17:14:38.218Z,52.88
2023-10-29T17:17:06.376Z,53.06
2023-10-29T17:19:35.734Z,53.21
2023-10-29T17:22:03.843Z,53.58
2023-10-29T17:24:31.946Z,53.50
2023-10-29T17:26:59.963Z,53.71
2023-10-29T17:30:05.030Z,53.87
2023-10-29T17:32:33.108Z,54.01
2023-10-29T17:35:03.210Z,54.12
2023-10-29T17:37:31.206Z,53.92
2023-10-29T17:39:59.106Z,54.03
2023-10-29T17:42:28.830Z,54.03
2023-10-29T17:44:56.839Z,54.23
2023-10-29T17:47:25.431Z,54.31
2023-10-29T17:49:52.490Z,54.34
2023-10-29T17:52:21.844Z,54.73
2023-10-29T17:54:50.169Z,54.78
2023-10-29T17:57:18.501Z,54.93
2023-10-29T17:59:46.466Z,54.92
2023-10-29T18:02:14.440Z,55.04
2023-10-29T18:04:42.385Z,55.11
2023-10-29T18:07:10.334Z,54.84
2023-10-29T18:09:39.606Z,54.97
2023-10-29T18:12:08.988Z,54.90
2023-10-29T18:14:37.517Z,54.78
2023-10-29T18:17:05.708Z,54.59
2023-10-29T18:19:33.623Z,54.74
2023-10-29T18:22:01.617Z,54.52
2023-10-29T18:24:29.537Z,54.71
2023-10-29T18:26:59.803Z,54.48
2023-10-29T18:29:27.753Z,54.44
2023-10-29T18:31:56.116Z,54.57
2023-10-29T18:34:24.073Z,54.54
2023-10-29T18:36:52.222Z,54.70
2023-10-29T18:39:20.350Z,54.83
2023-10-29T18:41:48.509Z,55.06
2023-10-29T18:44:17.874Z,55.13
2023-10-29T18:46:45.823Z,55.36
2023-10-29T18:49:13.878Z,55.38
2023-10-29T18:51:41.824Z,55.61
2023-10-29T18:54:09.826Z,55.76
2023-10-29T18:56:37.762Z,55.76
2023-10-29T18:59:06.146Z,56.13
2023-10-29T19:01:35.996Z,56.32
2023-10-29T19:04:04.344Z,56.24
2023-10-29T19:06:32.413Z,56.32
2023-10-29T19:09:01.051Z,56.63
2023-10-29T19:11:33.124Z,56.38
2023-10-29T19:14:01.085Z,56.54
2023-10-29T19:16:29.019Z,56.95
2023-10-29T19:18:58.449Z,56.78
2023-10-29T19:21:26.582Z,56.77
2023-10-29T19:23:54.703Z,56.86
2023-10-29T19:26:22.695Z,56.54
2023-10-29T19:28:51.220Z,56.67
2023-10-29T19:31:26.467Z,56.65
2023-10-29T19:33:55.805Z,56.52
2023-10-29T19:36:25.580Z,56.43
2023-10-29T19:38:53.789Z,56.63
2023-10-29T19:41:21.737Z,56.67
2023-10-29T19:43:49.753Z,56.73
2023-10-29T19:46:17.743Z,56.92
2023-10-29T19:48:45.742Z,57.31
2023-10-29T19:51:13.705Z,57.10
2023-10-29T19:53:43.005Z,57.12
2023-10-29T19:56:12.668Z,57.27
2023-10-29T19:58:41.096Z,57.28
2023-10-29T20:01:09.901Z,57.46
2023-10-29T20:03:38.102Z,57.61
2023-10-29T20:06:09.467Z,57.81
2023-10-29T20:08:37.510Z,57.85
2023-10-29T20:11:10.336Z,57.61
2023-10-29T20:13:38.371Z,57.60
2023-10-29T20:16:07.105Z,57.68
2023-10-29T20:18:35.643Z,57.57
2023-10-29T20:21:03.720Z,57.76
2023-10-29T20:23:31.854Z,57.81
2023-10-29T20:26:04.247Z,57.86
2023-10-29T20:28:33.678Z,57.72
2023-10-29T20:31:01.608Z,57.92
2023-10-29T20:33:29.863Z,58.17
2023-10-29T20:35:58.094Z,58.22
2023-10-29T20:38:26.919Z,58.50
2023-10-29T20:40:54.886Z,58.22
2023-10-29T20:43:22.873Z,58.80
2023-10-29T20:45:54.005Z,59.33
2023-10-29T20:48:22.699Z,59.52
2023-10-29T20:50:54.570Z,59.66
2023-10-29T20:53:22.715Z,59.94
2023-10-29T20:55:50.612Z,60.54
2023-10-29T20:58:18.601Z,60.82
2023-10-29T21:00:48.585Z,60.97
2023-10-29T21:03:18.136Z,61.17
2023-10-29T21:05:47.060Z,61.58
2023-10-29T21:08:15.208Z,61.75
2023-10-29T21:10:43.199Z,62.21
2023-10-29T21:13:11.157Z,62.07
2023-10-29T21:15:41.517Z,62.18
2023-10-29T21:18:09.847Z,62.13
2023-10-29T21:20:39.179Z,62.40
2023-10-29T21:23:08.082Z,62.30
2023-10-29T21:25:37.844Z,62.35
2023-10-29T21:28:06.164Z,62.03
2023-10-29T21:30:35.206Z,62.23
2023-10-29T21:33:03.505Z,62.18
2023-10-29T21:35:31.516Z,61.87
2023-10-29T21:38:01.616Z,61.94
2023-10-29T21:40:29.738Z,61.79
2023-10-29T21:42:57.657Z,61.76
2023-10-29T21:45:25.707Z,61.72
2023-10-29T21:47:53.664Z,61.61
2023-10-29T21:50:21.623Z,61.71
2023-10-29T21:52:49.553Z,61.49
2023-10-29T21:55:18.915Z,61.33
2023-10-29T21:57:46.875Z,61.34
2023-10-29T22:00:15.645Z,60.97
2023-10-29T22:02:43.823Z,61.24
2023-10-29T22:05:11.771Z,61.39
2023-10-29T22:07:39.731Z,61.14
2023-10-29T22:10:08.771Z,61.15
2023-10-29T22:12:38.845Z,60.87
2023-10-29T22:15:08.045Z,60.79
2023-10-29T22:17:36.016Z,60.68
2023-10-29T22:20:03.999Z,60.68
2023-10-29T22:22:31.914Z,60.84
2023-10-29T22:25:00.166Z,60.65
2023-10-29T22:27:28.210Z,60.27
2023-10-29T22:29:57.780Z,60.51
2023-10-29T22:32:25.804Z,60.62
2023-10-29T22:34:53.717Z,60.59
2023-10-29T22:37:21.694Z,60.74
2023-10-29T22:39:49.924Z,60.77
2023-10-29T22:42:18.083Z,60.90
2023-10-29T22:44:46.031Z,60.98
2023-10-29T22:47:15.407Z,60.86
2023-10-29T22:49:43.337Z,61.00
2023-10-29T22:52:11.228Z,60.91
2023-10-29T22:54:39.335Z,61.00
2023-10-29T22:57:07.305Z,60.92
2023-10-29T22:59:35.462Z,60.97
2023-10-29T23:02:05.444Z,60.97
2023-10-29T23:04:35.051Z,60.99
2023-10-29T23:07:03.588Z,60.94
2023-10-29T23:09:31.563Z,61.00
2023-10-29T23:11:59.513Z,61.18
2023-10-29T23:14:27.453Z,61.18
2023-10-29T23:16:55.449Z,61.32
2023-10-29T23:19:23.753Z,61.36
2023-10-29T23:21:53.065Z,61.41
2023-10-29T23:24:21.135Z,61.53
2023-10-29T23:26:49.115Z,61.32
2023-10-29T23:29:17.083Z,61.32
2023-10-29T23:31:45.180Z,61.45
2023-10-29T23:34:13.186Z,61.37
2023-10-29T23:36:41.215Z,61.30
2023-10-29T23:39:10.880Z,61.41
2023-10-29T23:41:38.857Z,61.48
2023-10-29T23:44:07.258Z,61.64
2023-10-29T23:46:35.270Z,62.07
2023-10-29T23:49:03.209Z,62.55
2023-10-29T23:51:31.184Z,62.82
2023-10-29T23:53:59.148Z,62.78
2023-10-29T23:56:28.557Z,63.30
2023-10-29T23:58:56.513Z,63.67
